createdAt,value
2018-05-05T00:00:32.052Z,7.50
2018-05-05T00:01:32.071Z,7.00
2018-05-05T00:02:32.066Z,7.40
2018-05-05T00:03:32.851Z,7.60
2018-05-05T00:04:32.008Z,7.10
2018-05-05T00:05:32.085Z,7.10
2018-05-05T00:06:32.032Z,7.20
2018-05-05T00:07:32.201Z,6.70
2018-05-05T00:08:32.017Z,7.50
2018-05-05T00:09:32.023Z,6.80
2018-05-05T00:10:32.038Z,7.10
2018-05-05T00:11:32.056Z,6.70
2018-05-05T00:12:32.066Z,7.20
2018-05-05T00:13:32.058Z,6.90
2018-05-05T00:14:32.026Z,7.10
2018-05-05T00:15:32.089Z,6.40
2018-05-05T00:16:32.039Z,6.80
2018-05-05T00:17:32.067Z,7.30
2018-05-05T00:18:32.086Z,6.20
2018-05-05T00:19:32.053Z,6.30
2018-05-05T00:20:32.326Z,7.10
2018-05-05T00:21:32.017Z,6.80
2018-05-05T00:22:32.070Z,6.60
2018-05-05T00:23:32.050Z,7.00
2018-05-05T00:24:32.109Z,7.10
2018-05-05T00:25:32.025Z,6.70
2018-05-05T00:26:32.074Z,6.70
2018-05-05T00:27:32.079Z,6.80
2018-05-05T00:28:32.065Z,6.80
2018-05-05T00:29:32.077Z,6.20
2018-05-05T00:30:32.067Z,6.30
2018-05-05T00:31:32.061Z,6.20
2018-05-05T00:32:32.175Z,6.70
2018-05-05T00:33:32.089Z,7.40
2018-05-05T00:34:39.008Z,6.60
2018-05-05T00:35:32.083Z,6.40
2018-05-05T00:36:32.045Z,6.30
2018-05-05T00:37:39.921Z,6.30
2018-05-05T00:38:34.360Z,6.60
2018-05-05T00:39:32.097Z,6.80
2018-05-05T00:40:32.073Z,6.40
2018-05-05T00:41:32.185Z,6.70
2018-05-05T00:42:32.089Z,6.80
2018-05-05T00:43:32.133Z,6.20
2018-05-05T00:44:32.070Z,6.60
2018-05-05T00:45:32.209Z,6.60
2018-05-05T00:46:32.082Z,6.30
2018-05-05T00:47:32.094Z,6.50
2018-05-05T00:48:32.143Z,6.60
2018-05-05T00:49:32.093Z,6.00
2018-05-05T00:50:32.099Z,6.30
2018-05-05T00:51:32.106Z,6.50
2018-05-05T00:52:32.085Z,6.50
2018-05-05T00:53:32.129Z,6.80
2018-05-05T00:54:32.124Z,6.10
2018-05-05T00:55:32.115Z,6.40
2018-05-05T00:56:32.110Z,6.10
2018-05-05T00:57:32.104Z,6.50
2018-05-05T00:58:32.087Z,6.70
2018-05-05T00:59:32.103Z,6.10
2018-05-05T01:00:32.142Z,6.80
2018-05-05T01:01:32.109Z,6.50
2018-05-05T01:02:32.375Z,6.20
2018-05-05T01:03:32.295Z,6.40
2018-05-05T01:04:32.134Z,6.40
2018-05-05T01:05:32.333Z,6.60
2018-05-05T01:06:32.403Z,6.30
2018-05-05T01:07:32.414Z,6.20
2018-05-05T01:08:32.361Z,6.40
2018-05-05T01:09:32.217Z,6.50
2018-05-05T01:10:32.499Z,6.00
2018-05-05T01:11:32.231Z,6.60
2018-05-05T01:12:33.378Z,6.40
2018-05-05T01:13:32.431Z,6.90
2018-05-05T01:14:32.304Z,6.90
2018-05-05T01:15:32.501Z,6.20
2018-05-05T01:16:32.239Z,6.50
2018-05-05T01:17:32.131Z,6.40
2018-05-05T01:18:32.170Z,6.40
2018-05-05T01:19:32.131Z,6.20
2018-05-05T01:20:32.138Z,7.00
2018-05-05T01:21:32.649Z,6.50
2018-05-05T01:22:32.127Z,6.80
2018-05-05T01:23:32.160Z,6.40
2018-05-05T01:24:32.163Z,6.20
2018-05-05T01:25:32.202Z,6.40
2018-05-05T01:26:32.179Z,6.50
2018-05-05T01:27:32.194Z,6.00
2018-05-05T01:28:32.168Z,6.30
2018-05-05T01:29:32.159Z,5.90
2018-05-05T01:30:32.136Z,6.60
2018-05-05T01:31:32.170Z,6.40
2018-05-05T01:32:32.189Z,6.10
2018-05-05T01:33:32.184Z,7.00
2018-05-05T01:34:32.186Z,6.60
2018-05-05T01:35:32.165Z,6.80
2018-05-05T01:36:32.181Z,6.30
2018-05-05T01:37:32.250Z,6.90
2018-05-05T01:38:32.175Z,6.60
2018-05-05T01:39:32.194Z,6.00
2018-05-05T01:40:32.188Z,6.30
2018-05-05T01:41:32.188Z,7.10
2018-05-05T01:42:32.183Z,6.30
2018-05-05T01:43:32.189Z,6.90
2018-05-05T01:44:32.254Z,6.30
2018-05-05T01:45:32.214Z,6.20
2018-05-05T01:46:32.168Z,6.60
2018-05-05T01:47:32.190Z,6.50
2018-05-05T01:48:32.215Z,6.70
2018-05-05T01:49:32.178Z,6.70
2018-05-05T01:50:32.242Z,6.60
2018-05-05T01:51:32.215Z,6.30
2018-05-05T01:52:32.204Z,6.40
2018-05-05T01:53:32.211Z,6.60
2018-05-05T01:54:32.221Z,6.60
2018-05-05T01:55:32.270Z,6.50
2018-05-05T01:56:32.231Z,6.40
2018-05-05T01:57:32.876Z,6.50
2018-05-05T01:58:32.199Z,6.90
2018-05-05T01:59:32.209Z,6.80
2018-05-05T02:00:32.241Z,6.80
2018-05-05T02:01:32.876Z,6.40
2018-05-05T02:02:32.192Z,6.30
2018-05-05T02:03:32.226Z,6.50
2018-05-05T02:04:32.228Z,6.70
2018-05-05T02:05:32.188Z,6.50
2018-05-05T02:06:32.255Z,7.00
2018-05-05T02:07:32.256Z,6.70
2018-05-05T02:08:32.201Z,7.00
2018-05-05T02:09:32.243Z,7.20
2018-05-05T02:10:32.226Z,6.30
2018-05-05T02:11:32.239Z,6.20
2018-05-05T02:12:32.250Z,6.20
2018-05-05T02:13:32.235Z,6.10
2018-05-05T02:14:32.307Z,6.60
2018-05-05T02:15:32.230Z,6.70
2018-05-05T02:16:32.232Z,6.80
2018-05-05T02:17:32.231Z,6.80
2018-05-05T02:18:32.237Z,7.00
2018-05-05T02:19:32.252Z,7.10
2018-05-05T02:20:32.242Z,6.90
2018-05-05T02:21:32.273Z,6.90
2018-05-05T02:22:32.272Z,6.70
2018-05-05T02:23:32.234Z,6.90
2018-05-05T02:24:32.285Z,6.40
2018-05-05T02:25:32.240Z,7.10
2018-05-05T02:26:32.281Z,6.20
2018-05-05T02:27:32.224Z,6.70
2018-05-05T02:28:32.266Z,6.70
2018-05-05T02:29:32.272Z,6.80
2018-05-05T02:30:32.282Z,7.00
2018-05-05T02:31:32.263Z,7.10
2018-05-05T02:32:32.244Z,7.10
2018-05-05T02:33:32.248Z,6.50
2018-05-05T02:34:32.262Z,6.70
2018-05-05T02:35:32.292Z,6.80
2018-05-05T02:36:32.304Z,6.60
2018-05-05T02:37:32.985Z,7.10
2018-05-05T02:38:32.263Z,6.70
2018-05-05T02:39:32.242Z,7.00
2018-05-05T02:40:32.301Z,7.30
2018-05-05T02:41:32.251Z,6.70
2018-05-05T02:42:32.301Z,6.40
2018-05-05T02:43:32.361Z,7.30
2018-05-05T02:44:32.318Z,7.30
2018-05-05T02:45:32.268Z,6.50
2018-05-05T02:46:32.356Z,7.30
2018-05-05T02:47:32.329Z,7.10
2018-05-05T02:48:32.313Z,7.00
2018-05-05T02:49:32.330Z,7.10
2018-05-05T02:50:32.309Z,7.00
2018-05-05T02:51:32.307Z,7.10
2018-05-05T02:52:32.314Z,6.90
2018-05-05T02:53:32.310Z,7.10
2018-05-05T02:54:32.268Z,7.10
2018-05-05T02:55:32.410Z,7.30
2018-05-05T02:56:32.317Z,6.70
2018-05-05T02:57:32.350Z,6.30
2018-05-05T02:58:32.308Z,6.80
2018-05-05T02:59:32.439Z,6.70
2018-05-05T03:00:32.281Z,6.90
2018-05-05T03:01:32.283Z,6.90
2018-05-05T03:02:32.335Z,7.50
2018-05-05T03:03:32.329Z,6.70
2018-05-05T03:04:32.313Z,7.40
2018-05-05T03:05:32.315Z,6.80
2018-05-05T03:06:32.357Z,7.10
2018-05-05T03:07:32.331Z,7.10
2018-05-05T03:08:32.396Z,7.40
2018-05-05T03:09:32.384Z,6.80
2018-05-05T03:10:32.323Z,6.60
2018-05-05T03:11:32.394Z,6.70
2018-05-05T03:12:32.353Z,7.20
2018-05-05T03:13:32.288Z,7.00
2018-05-05T03:14:32.347Z,7.10
2018-05-05T03:15:32.362Z,6.80
2018-05-05T03:16:32.304Z,7.20
2018-05-05T03:17:32.320Z,7.60
2018-05-05T03:18:32.345Z,7.10
2018-05-05T03:19:32.301Z,6.90
2018-05-05T03:20:32.330Z,7.70
2018-05-05T03:21:32.380Z,6.50
2018-05-05T03:22:32.325Z,6.70
2018-05-05T03:23:32.360Z,7.20
2018-05-05T03:24:32.330Z,7.00
2018-05-05T03:25:32.345Z,7.30
2018-05-05T03:26:32.319Z,7.30
2018-05-05T03:27:32.408Z,7.10
2018-05-05T03:28:32.361Z,6.50
2018-05-05T03:29:32.316Z,6.40
2018-05-05T03:30:32.371Z,7.10
2018-05-05T03:31:32.898Z,7.10
2018-05-05T03:32:32.326Z,7.30
2018-05-05T03:33:32.368Z,6.40
2018-05-05T03:34:32.344Z,7.50
2018-05-05T03:35:32.333Z,6.70
2018-05-05T03:36:32.364Z,7.10
2018-05-05T03:37:32.431Z,6.50
2018-05-05T03:38:32.335Z,7.20
2018-05-05T03:39:32.330Z,7.60
2018-05-05T03:40:32.368Z,7.70
2018-05-05T03:41:32.442Z,7.10
2018-05-05T03:42:32.346Z,7.50
2018-05-05T03:43:32.424Z,7.90
2018-05-05T03:44:32.365Z,7.90
2018-05-05T03:45:32.370Z,7.10
2018-05-05T03:46:32.392Z,7.40
2018-05-05T03:47:32.340Z,7.70
2018-05-05T03:48:32.380Z,7.50
2018-05-05T03:49:32.399Z,7.30
2018-05-05T03:50:32.367Z,7.60
2018-05-05T03:51:32.404Z,7.50
2018-05-05T03:52:32.342Z,7.20
2018-05-05T04:10:35.459Z,7.30
2018-05-05T04:11:34.747Z,8.10
2018-05-05T04:12:34.684Z,7.30
2018-05-05T04:13:34.662Z,7.60
2018-05-05T04:14:34.696Z,7.30
2018-05-05T04:15:34.677Z,7.60
2018-05-05T04:16:34.704Z,8.30
2018-05-05T04:17:34.719Z,7.80
2018-05-05T04:18:34.727Z,7.50
2018-05-05T04:19:34.841Z,7.80
2018-05-05T04:20:34.711Z,8.60
2018-05-05T04:21:34.870Z,8.40
2018-05-05T04:22:34.694Z,8.20
2018-05-05T04:23:34.739Z,7.90
2018-05-05T04:24:34.678Z,7.90
2018-05-05T04:25:34.733Z,7.90
2018-05-05T04:26:34.705Z,8.20
2018-05-05T04:27:34.727Z,7.90
2018-05-05T04:28:34.741Z,8.20
2018-05-05T04:29:34.740Z,8.10
2018-05-05T04:30:34.762Z,7.60
2018-05-05T04:31:34.729Z,7.10
2018-05-05T04:32:34.734Z,7.70
2018-05-05T04:33:34.721Z,7.80
2018-05-05T04:34:34.770Z,7.70
2018-05-05T04:35:34.725Z,7.50
2018-05-05T04:36:34.750Z,7.30
2018-05-05T04:37:34.765Z,8.20
2018-05-05T04:38:34.716Z,7.40
2018-05-05T04:39:34.711Z,7.80
2018-05-05T04:40:34.804Z,7.30
2018-05-05T04:41:34.766Z,7.20
2018-05-05T04:42:34.743Z,7.30
2018-05-05T04:43:34.724Z,8.10
2018-05-05T04:44:34.844Z,7.50
2018-05-05T04:45:34.753Z,7.60
2018-05-05T04:46:34.735Z,7.40
2018-05-05T04:47:34.748Z,8.00
2018-05-05T04:48:34.762Z,7.20
2018-05-05T04:49:34.817Z,7.10
2018-05-05T04:50:34.781Z,7.10
2018-05-05T04:51:34.749Z,7.10
2018-05-05T04:52:34.789Z,7.40
2018-05-05T04:53:34.734Z,7.40
2018-05-05T04:54:34.755Z,6.90
2018-05-05T04:55:34.739Z,7.50
2018-05-05T04:56:34.772Z,6.90
2018-05-05T04:57:34.804Z,7.10
2018-05-05T04:58:37.296Z,6.20
2018-05-05T04:59:34.759Z,6.90
2018-05-05T05:00:35.683Z,6.50
2018-05-05T05:01:36.245Z,7.10
2018-05-05T05:02:34.737Z,6.70
2018-05-05T05:03:34.781Z,6.60
2018-05-05T05:04:34.754Z,6.30
2018-05-05T05:05:34.728Z,6.60
2018-05-05T05:06:34.762Z,7.00
2018-05-05T05:07:34.739Z,6.60
2018-05-05T05:08:34.738Z,6.30
2018-05-05T05:09:34.743Z,6.80
2018-05-05T05:10:34.771Z,7.00
2018-05-05T05:11:34.745Z,6.00
2018-05-05T05:12:34.798Z,7.30
2018-05-05T05:13:34.815Z,6.10
2018-05-05T05:14:34.785Z,6.50
2018-05-05T05:15:34.807Z,6.00
2018-05-05T05:16:34.785Z,6.20
2018-05-05T05:17:34.787Z,6.00
2018-05-05T05:18:34.747Z,6.40
2018-05-05T05:19:34.773Z,6.60
2018-05-05T05:20:34.771Z,6.40
2018-05-05T05:21:34.772Z,6.10
2018-05-05T05:22:34.788Z,5.60
2018-05-05T05:23:34.773Z,6.00
2018-05-05T05:24:34.797Z,6.30
2018-05-05T05:25:34.753Z,5.70
2018-05-05T05:26:34.831Z,6.10
2018-05-05T05:27:34.771Z,5.90
2018-05-05T05:28:34.830Z,6.20
2018-05-05T05:29:34.833Z,6.00
2018-05-05T05:30:34.807Z,5.20
2018-05-05T05:31:35.689Z,5.10
2018-05-05T05:32:34.801Z,5.50
2018-05-05T05:33:34.842Z,5.60
2018-05-05T05:34:34.837Z,6.00
2018-05-05T05:35:34.865Z,5.50
2018-05-05T05:36:34.806Z,5.90
2018-05-05T05:37:34.878Z,5.50
2018-05-05T05:38:35.030Z,5.80
2018-05-05T05:39:34.814Z,6.10
2018-05-05T05:40:34.828Z,5.50
2018-05-05T05:41:35.179Z,5.50
2018-05-05T05:42:34.827Z,5.80
2018-05-05T05:43:34.823Z,6.20
2018-05-05T05:44:34.824Z,6.00
2018-05-05T05:45:34.842Z,5.80
2018-05-05T05:46:34.828Z,5.20
2018-05-05T05:47:34.855Z,5.40
2018-05-05T05:48:36.810Z,6.20
2018-05-05T05:49:34.877Z,5.70
2018-05-05T05:50:34.973Z,5.80
2018-05-05T05:51:34.863Z,5.60
2018-05-05T05:52:34.878Z,5.70
2018-05-05T05:53:34.913Z,5.50
2018-05-05T05:54:34.879Z,5.40
2018-05-05T05:55:34.989Z,5.60
2018-05-05T05:56:34.860Z,5.80
2018-05-05T05:57:34.897Z,5.70
2018-05-05T05:58:34.895Z,5.30
2018-05-05T05:59:34.869Z,5.00
2018-05-05T06:00:34.867Z,5.60
2018-05-05T06:01:34.900Z,5.80
2018-05-05T06:02:34.897Z,5.40
2018-05-05T06:03:34.917Z,5.30
2018-05-05T06:04:34.904Z,5.70
2018-05-05T06:05:34.936Z,5.20
2018-05-05T06:06:34.863Z,5.40
2018-05-05T06:07:35.697Z,5.50
2018-05-05T06:08:34.917Z,5.10
2018-05-05T06:09:34.926Z,5.10
2018-05-05T06:10:34.993Z,5.30
2018-05-05T06:11:34.962Z,5.40
2018-05-05T06:12:35.700Z,5.60
2018-05-05T06:13:34.933Z,4.90
2018-05-05T06:14:34.947Z,5.70
2018-05-05T06:15:34.964Z,5.00
2018-05-05T06:16:34.969Z,5.10
2018-05-05T06:17:34.969Z,5.60
2018-05-05T06:18:34.977Z,5.50
2018-05-05T06:19:34.966Z,5.20
2018-05-05T06:20:36.781Z,5.30
2018-05-05T06:21:34.999Z,4.80
2018-05-05T06:22:34.942Z,4.90
2018-05-05T06:23:34.972Z,4.80
2018-05-05T06:24:34.996Z,4.90
2018-05-05T06:25:35.041Z,5.00
2018-05-05T06:26:36.799Z,4.70
2018-05-05T06:27:35.060Z,5.10
2018-05-05T06:28:35.013Z,4.50
2018-05-05T06:29:34.988Z,5.00
2018-05-05T06:30:35.058Z,4.70
2018-05-05T06:31:35.057Z,4.70
2018-05-05T06:32:35.046Z,4.60
2018-05-05T06:33:35.041Z,4.70
2018-05-05T06:34:35.063Z,4.70
2018-05-05T06:35:35.161Z,4.80
2018-05-05T06:36:35.007Z,5.10
2018-05-05T06:37:35.028Z,4.70
2018-05-05T06:38:35.106Z,4.80
2018-05-05T06:39:35.037Z,4.90
2018-05-05T06:40:35.083Z,5.10
2018-05-05T06:41:35.065Z,4.80
2018-05-05T06:42:35.105Z,4.70
2018-05-05T06:43:35.082Z,5.00
2018-05-05T06:44:35.098Z,4.60
2018-05-05T06:45:35.157Z,4.50
2018-05-05T06:46:35.170Z,4.60
2018-05-05T06:47:35.160Z,4.30
2018-05-05T06:48:35.102Z,4.40
2018-05-05T06:49:35.118Z,4.30
2018-05-05T06:50:35.121Z,4.60
2018-05-05T06:51:35.182Z,4.00
2018-05-05T06:52:35.175Z,4.70
2018-05-05T06:53:35.183Z,4.60
2018-05-05T06:54:35.184Z,4.20
2018-05-05T06:55:35.224Z,3.60
2018-05-05T06:56:35.189Z,4.20
2018-05-05T06:57:36.448Z,4.50
2018-05-05T06:58:35.721Z,3.80
2018-05-05T06:59:35.272Z,4.20
2018-05-05T07:00:35.317Z,4.00
2018-05-05T07:01:35.267Z,4.50
2018-05-05T07:02:35.228Z,4.20
2018-05-05T07:03:35.309Z,3.80
2018-05-05T07:04:35.302Z,4.60
2018-05-05T07:05:36.217Z,4.10
2018-05-05T07:06:35.390Z,3.90
2018-05-05T07:07:35.326Z,4.00
2018-05-05T07:08:35.300Z,4.30
2018-05-05T07:09:35.339Z,3.90
2018-05-05T07:10:35.324Z,4.00
2018-05-05T07:11:35.341Z,3.40
2018-05-05T07:12:35.353Z,3.80
2018-05-05T07:13:35.898Z,3.90
2018-05-05T07:14:35.447Z,3.80
2018-05-05T07:15:35.506Z,3.70
2018-05-05T07:16:35.471Z,3.80
2018-05-05T07:17:36.630Z,3.70
2018-05-05T07:18:36.234Z,3.70
2018-05-05T07:19:35.458Z,3.70
2018-05-05T07:20:35.501Z,3.30
2018-05-05T07:21:35.457Z,3.80
2018-05-05T07:22:35.514Z,3.20
2018-05-05T07:23:36.424Z,3.70
2018-05-05T07:24:35.496Z,3.70
2018-05-05T07:25:36.238Z,4.30
2018-05-05T07:26:35.577Z,3.70
2018-05-05T07:27:35.528Z,3.60
2018-05-05T07:28:35.590Z,3.30
2018-05-05T07:29:35.587Z,3.90
2018-05-05T07:30:35.627Z,4.60
2018-05-05T07:31:35.584Z,3.80
2018-05-05T07:32:35.792Z,3.70
2018-05-05T07:33:35.592Z,3.60
2018-05-05T07:34:35.642Z,3.50
2018-05-05T07:35:35.670Z,3.20
2018-05-05T07:36:35.680Z,3.50
2018-05-05T07:37:35.694Z,4.10
2018-05-05T07:38:36.252Z,3.80
2018-05-05T07:39:35.670Z,3.90
2018-05-05T07:40:35.661Z,3.60
2018-05-05T07:41:35.922Z,3.40
2018-05-05T07:42:38.381Z,3.80
2018-05-05T07:43:35.861Z,3.90
2018-05-05T07:44:35.731Z,3.90
2018-05-05T07:45:35.741Z,3.50
2018-05-05T07:46:35.825Z,3.70
2018-05-05T07:49:08.550Z,3.70
2018-05-05T07:50:08.541Z,3.40
2018-05-05T07:51:08.562Z,3.70
2018-05-05T07:52:08.558Z,3.90
2018-05-05T07:53:08.608Z,3.90
2018-05-05T07:54:08.581Z,3.90
2018-05-05T07:55:08.595Z,4.00
2018-05-05T07:56:08.625Z,3.50
2018-05-05T07:57:08.622Z,4.00
2018-05-05T07:58:09.471Z,3.80
2018-05-05T07:59:08.727Z,3.70
2018-05-05T08:00:08.664Z,3.50
2018-05-05T08:01:08.736Z,4.00
2018-05-05T08:02:08.710Z,3.50
2018-05-05T08:03:08.727Z,3.60
2018-05-05T08:04:08.721Z,3.20
2018-05-05T08:05:08.731Z,3.60
2018-05-05T08:06:08.773Z,3.60
2018-05-05T08:07:08.767Z,3.50
2018-05-05T08:08:08.859Z,3.50
2018-05-05T08:09:08.850Z,3.30
2018-05-05T08:10:08.887Z,3.10
2018-05-05T08:11:08.841Z,3.00
2018-05-05T08:12:08.842Z,3.60
2018-05-05T08:13:08.859Z,3.40
2018-05-05T08:14:08.872Z,3.30
2018-05-05T08:15:08.889Z,3.30
2018-05-05T08:16:08.923Z,3.20
2018-05-05T08:17:08.924Z,3.40
2018-05-05T08:18:08.953Z,3.10
2018-05-05T08:19:08.969Z,3.30
2018-05-05T08:20:08.961Z,2.90
2018-05-05T08:21:08.986Z,3.30
2018-05-05T08:22:08.995Z,3.20
2018-05-05T08:23:09.023Z,3.10
2018-05-05T08:24:09.044Z,3.10
2018-05-05T08:25:09.063Z,3.30
2018-05-05T08:26:09.062Z,2.80
2018-05-05T08:27:09.082Z,2.70
2018-05-05T08:28:09.083Z,3.00
2018-05-05T08:29:09.143Z,3.10
2018-05-05T08:30:09.992Z,2.90
2018-05-05T08:31:09.129Z,3.20
2018-05-05T08:32:09.146Z,3.00
2018-05-05T08:33:09.175Z,2.90
2018-05-05T08:34:09.179Z,3.30
2018-05-05T08:35:09.195Z,3.50
2018-05-05T08:36:09.209Z,3.40
2018-05-05T08:37:09.232Z,3.40
2018-05-05T08:38:09.251Z,3.40
2018-05-05T08:39:09.274Z,3.70
2018-05-05T08:40:09.282Z,3.40
2018-05-05T08:41:09.313Z,3.30
2018-05-05T08:42:09.312Z,3.60
2018-05-05T08:43:09.322Z,3.50
2018-05-05T08:44:09.342Z,3.50
2018-05-05T08:45:09.396Z,4.20
2018-05-05T08:46:09.377Z,3.50
2018-05-05T08:47:09.446Z,4.00
2018-05-05T08:48:09.402Z,4.00
2018-05-05T08:49:09.425Z,4.40
2018-05-05T08:50:09.547Z,4.60
2018-05-05T08:51:09.460Z,4.70
2018-05-05T08:52:09.475Z,4.30
2018-05-05T08:53:09.494Z,4.20
2018-05-05T08:54:09.520Z,3.90
2018-05-05T08:55:09.530Z,4.10
2018-05-05T08:56:09.542Z,4.70
2018-05-05T08:57:09.575Z,3.90
2018-05-05T08:58:09.581Z,4.70
2018-05-05T08:59:09.592Z,4.80
2018-05-05T09:00:09.688Z,4.90
2018-05-05T09:01:09.659Z,5.10
2018-05-05T09:02:09.637Z,5.20
2018-05-05T09:03:09.669Z,5.40
2018-05-05T09:04:09.694Z,5.70
2018-05-05T09:05:09.693Z,5.20
2018-05-05T09:06:09.716Z,5.10
2018-05-05T09:07:09.735Z,5.40
2018-05-05T09:08:09.740Z,5.90
2018-05-05T09:09:09.785Z,5.00
2018-05-05T09:10:09.770Z,5.10
2018-05-05T09:11:09.793Z,5.30
2018-05-05T09:12:09.807Z,5.90
2018-05-05T09:13:09.837Z,4.90
2018-05-05T09:14:09.861Z,4.90
2018-05-05T09:15:09.862Z,5.10
2018-05-05T09:16:09.872Z,4.90
2018-05-05T09:17:09.895Z,5.00
2018-05-05T09:18:09.907Z,5.10
2018-05-05T09:19:09.921Z,5.20
2018-05-05T09:20:09.941Z,5.30
2018-05-05T09:21:09.969Z,5.40
2018-05-05T09:22:09.972Z,4.80
2018-05-05T09:23:09.990Z,4.60
2018-05-05T09:24:10.014Z,4.60
2018-05-05T09:25:10.031Z,5.70
2018-05-05T09:26:10.045Z,4.50
2018-05-05T09:27:10.069Z,5.00
2018-05-05T09:28:10.077Z,4.60
2018-05-05T09:29:10.098Z,4.70
2018-05-05T09:30:10.111Z,4.70
2018-05-05T09:31:10.143Z,5.00
2018-05-05T09:32:10.151Z,5.50
2018-05-05T09:33:10.166Z,5.50
2018-05-05T09:34:10.216Z,5.60
2018-05-05T09:35:10.210Z,6.20
2018-05-05T09:36:10.213Z,5.70
2018-05-05T09:37:10.224Z,5.50
2018-05-05T09:38:10.243Z,5.90
2018-05-05T09:39:10.251Z,5.70
2018-05-05T09:40:10.286Z,6.30
2018-05-05T09:41:10.301Z,6.00
2018-05-05T09:42:10.307Z,6.20
2018-05-05T09:43:10.317Z,5.60
2018-05-05T09:44:10.348Z,5.20
2018-05-05T09:45:10.365Z,5.70
2018-05-05T09:46:10.367Z,5.50
2018-05-05T09:47:10.385Z,5.90
2018-05-05T09:48:10.398Z,5.30
2018-05-05T09:49:10.427Z,5.30
2018-05-05T09:50:10.421Z,4.80
2018-05-05T09:51:10.475Z,5.70
2018-05-05T09:52:10.568Z,5.10
2018-05-05T09:53:10.477Z,5.70
2018-05-05T09:54:10.511Z,5.90
2018-05-05T09:55:10.513Z,5.90
2018-05-05T09:56:10.525Z,6.50
2018-05-05T09:57:10.546Z,6.10
2018-05-05T09:58:10.553Z,5.20
2018-05-05T09:59:10.574Z,5.30
2018-05-05T10:00:10.589Z,6.10
2018-05-05T10:01:10.625Z,5.30
2018-05-05T10:02:10.623Z,5.30
2018-05-05T10:03:10.641Z,5.90
2018-05-05T10:04:10.657Z,6.10
2018-05-05T10:05:10.676Z,5.40
2018-05-05T10:06:10.697Z,5.40
2018-05-05T10:07:10.733Z,5.20
2018-05-05T10:08:10.739Z,5.10
2018-05-05T10:09:10.760Z,5.70
2018-05-05T10:10:10.758Z,5.70
2018-05-05T10:11:10.776Z,5.80
2018-05-05T10:12:10.809Z,5.50
2018-05-05T10:13:10.821Z,5.60
2018-05-05T10:14:10.829Z,5.70
2018-05-05T10:15:10.845Z,6.00
2018-05-05T10:16:10.868Z,5.70
2018-05-05T10:17:10.877Z,5.70
2018-05-05T10:18:10.912Z,5.60
2018-05-05T10:19:10.922Z,5.60
2018-05-05T10:20:10.937Z,5.00
2018-05-05T10:21:10.964Z,6.00
2018-05-05T10:22:10.991Z,5.20
2018-05-05T10:23:10.995Z,5.50
2018-05-05T10:24:11.007Z,5.70
2018-05-05T10:25:11.036Z,5.70
2018-05-05T10:26:11.056Z,5.70
2018-05-05T10:27:11.072Z,4.80
2018-05-05T10:28:11.090Z,5.40
2018-05-05T10:29:13.125Z,5.20
2018-05-05T10:30:11.136Z,5.00
2018-05-05T10:31:11.146Z,5.20
2018-05-05T10:32:11.167Z,5.50
2018-05-05T10:33:11.184Z,6.00
2018-05-05T10:34:12.072Z,5.70
2018-05-05T10:35:11.217Z,5.00
2018-05-05T10:36:11.240Z,5.60
2018-05-05T10:37:11.253Z,5.50
2018-05-05T10:38:11.263Z,5.30
2018-05-05T10:39:11.381Z,5.20
2018-05-05T10:40:11.303Z,5.40
2018-05-05T10:41:11.329Z,5.50
2018-05-05T10:42:11.357Z,5.90
2018-05-05T10:43:11.366Z,6.10
2018-05-05T10:44:11.385Z,5.90
2018-05-05T10:45:11.398Z,5.60
2018-05-05T10:46:11.439Z,6.60
2018-05-05T10:47:11.427Z,6.20
2018-05-05T10:48:11.445Z,5.70
2018-05-05T10:51:07.071Z,5.10
2018-05-05T10:51:46.082Z,6.00
2018-05-05T10:52:45.576Z,6.20
2018-05-05T10:53:44.349Z,5.40
2018-05-05T10:54:46.096Z,5.60
2018-05-05T10:55:44.137Z,5.50
2018-05-05T10:56:44.171Z,5.80
2018-05-05T10:57:44.195Z,4.90
2018-05-05T10:58:44.297Z,5.50
2018-05-05T10:59:44.227Z,5.40
2018-05-05T11:00:44.325Z,5.10
2018-05-05T11:01:44.290Z,5.10
2018-05-05T11:02:44.252Z,5.40
2018-05-05T11:03:45.091Z,5.40
2018-05-05T11:04:44.529Z,5.40
2018-05-05T11:05:44.273Z,5.40
2018-05-05T11:06:45.100Z,5.30
2018-05-05T11:07:44.341Z,5.60
2018-05-05T11:08:44.352Z,6.00
2018-05-05T11:09:44.386Z,6.00
2018-05-05T11:10:44.370Z,6.10
2018-05-05T11:11:44.394Z,6.40
2018-05-05T11:12:44.386Z,5.40
2018-05-05T11:13:45.091Z,5.60
2018-05-05T11:14:44.399Z,5.90
2018-05-05T11:15:44.421Z,5.30
2018-05-05T11:16:44.425Z,5.30
2018-05-05T11:17:44.435Z,5.40
2018-05-05T11:18:44.381Z,5.30
2018-05-05T11:19:44.534Z,5.20
2018-05-05T11:20:44.484Z,5.20
2018-05-05T11:21:44.539Z,5.50
2018-05-05T11:22:44.476Z,5.80
2018-05-05T11:23:44.486Z,5.70
2018-05-05T11:24:44.482Z,5.40
2018-05-05T11:25:44.519Z,5.80
2018-05-05T11:26:44.478Z,5.90
2018-05-05T11:27:44.679Z,5.40
2018-05-05T11:28:44.453Z,5.10
2018-05-05T11:29:44.505Z,5.30
2018-05-05T11:30:44.529Z,4.80
2018-05-05T11:31:45.096Z,5.70
2018-05-05T11:32:44.627Z,5.70
2018-05-05T11:33:44.599Z,5.60
2018-05-05T11:34:44.585Z,5.80
2018-05-05T11:35:44.567Z,6.00
2018-05-05T11:36:44.587Z,5.90
2018-05-05T11:37:44.610Z,6.30
2018-05-05T11:38:44.616Z,5.30
2018-05-05T11:39:44.651Z,6.20
2018-05-05T11:40:44.563Z,5.80
2018-05-05T11:41:44.596Z,6.10
2018-05-05T11:42:44.616Z,5.80
2018-05-05T11:43:44.625Z,5.70
2018-05-05T11:44:44.676Z,6.00
2018-05-05T11:45:44.669Z,5.70
2018-05-05T11:46:44.671Z,5.40
2018-05-05T11:47:44.659Z,5.30
2018-05-05T11:48:44.703Z,5.70
2018-05-05T11:49:44.671Z,4.90
2018-05-05T11:50:45.000Z,5.60
2018-05-05T11:51:45.110Z,5.60
2018-05-05T11:52:44.711Z,5.90
2018-05-05T11:53:44.679Z,5.90
2018-05-05T11:54:44.692Z,5.90
2018-05-05T11:55:44.710Z,6.00
2018-05-05T11:56:44.714Z,6.00
2018-05-05T11:57:44.718Z,6.30
2018-05-05T11:58:44.724Z,5.50
2018-05-05T11:59:44.750Z,5.50
2018-05-05T12:00:44.740Z,5.80
2018-05-05T12:01:44.932Z,5.60
2018-05-05T12:02:44.721Z,5.60
2018-05-05T12:03:44.744Z,5.90
2018-05-05T12:04:45.615Z,6.30
2018-05-05T12:05:44.703Z,5.90
2018-05-05T12:06:44.698Z,6.10
2018-05-05T12:07:44.772Z,6.40
2018-05-05T12:08:44.797Z,5.90
2018-05-05T12:09:44.740Z,6.10
2018-05-05T12:10:44.867Z,6.20
2018-05-05T12:11:45.023Z,6.30
2018-05-05T12:12:44.835Z,5.90
2018-05-05T12:13:44.829Z,5.80
2018-05-05T12:14:44.945Z,6.30
2018-05-05T12:15:44.818Z,6.00
2018-05-05T12:16:44.835Z,5.70
2018-05-05T12:17:44.782Z,5.60
2018-05-05T12:18:44.813Z,5.60
2018-05-05T12:19:44.858Z,6.00
2018-05-05T12:20:44.855Z,5.70
2018-05-05T12:21:44.846Z,5.90
2018-05-05T12:22:44.879Z,5.70
2018-05-05T12:23:44.884Z,5.80
2018-05-05T12:24:45.633Z,6.30
2018-05-05T12:25:45.036Z,6.00
2018-05-05T12:26:44.826Z,5.50
2018-05-05T12:27:44.975Z,5.60
2018-05-05T12:28:44.920Z,6.30
2018-05-05T12:29:44.870Z,5.90
2018-05-05T12:30:44.887Z,5.80
2018-05-05T12:31:44.962Z,6.00
2018-05-05T12:32:44.887Z,6.20
2018-05-05T12:33:44.922Z,5.60
2018-05-05T12:34:44.925Z,5.90
2018-05-05T12:35:44.915Z,5.70
2018-05-05T12:36:44.888Z,5.50
2018-05-05T12:37:45.050Z,6.10
2018-05-05T12:38:44.950Z,5.30
2018-05-05T12:39:44.963Z,5.90
2018-05-05T12:40:44.957Z,6.10
2018-05-05T12:41:44.955Z,6.10
2018-05-05T12:42:44.976Z,6.30
2018-05-05T12:43:44.973Z,6.10
2018-05-05T12:44:44.965Z,6.00
2018-05-05T12:45:44.947Z,5.90
2018-05-05T12:46:45.000Z,6.30
2018-05-05T12:47:44.997Z,6.00
2018-05-05T12:48:44.985Z,5.10
2018-05-05T12:49:44.994Z,4.90
2018-05-05T12:50:44.989Z,5.40
2018-05-05T12:51:45.189Z,5.20
2018-05-05T12:52:45.060Z,5.30
2018-05-05T12:53:44.977Z,5.80
2018-05-05T12:54:45.016Z,5.40
2018-05-05T12:55:45.028Z,5.20
2018-05-05T12:56:45.035Z,5.20
2018-05-05T12:57:45.049Z,5.70
2018-05-05T12:58:45.029Z,5.30
2018-05-05T12:59:45.164Z,5.70
2018-05-05T13:00:45.038Z,5.40
2018-05-05T13:01:45.126Z,5.70
2018-05-05T13:02:45.639Z,5.90
2018-05-05T13:03:45.129Z,4.70
2018-05-05T13:04:45.063Z,5.20
2018-05-05T13:05:45.117Z,4.80
2018-05-05T13:06:45.078Z,4.30
2018-05-05T13:07:45.090Z,4.70
2018-05-05T13:08:45.087Z,4.60
2018-05-05T13:09:45.060Z,4.50
2018-05-05T13:10:45.112Z,4.70
2018-05-05T13:11:45.128Z,5.00
2018-05-05T13:12:45.103Z,7.50
2018-05-05T13:13:45.098Z,5.00
2018-05-05T13:14:45.114Z,5.30
2018-05-05T13:15:45.661Z,4.50
2018-05-05T13:16:45.120Z,4.60
2018-05-05T13:17:45.125Z,4.60
2018-05-05T13:18:45.125Z,4.30
2018-05-05T13:19:45.161Z,4.30
2018-05-05T13:20:45.093Z,4.20
2018-05-05T13:21:45.140Z,4.30
2018-05-05T13:22:45.149Z,5.10
2018-05-05T13:23:45.161Z,4.30
2018-05-05T13:24:45.201Z,4.20
2018-05-05T13:25:45.284Z,4.20
2018-05-05T13:26:45.196Z,4.30
2018-05-05T13:27:45.252Z,3.90
2018-05-05T13:28:45.217Z,4.60
2018-05-05T13:29:45.349Z,4.10
2018-05-05T13:30:45.246Z,4.40
2018-05-05T13:31:45.213Z,4.90
2018-05-05T13:32:45.220Z,4.30
2018-05-05T13:33:45.222Z,4.50
2018-05-05T13:34:45.228Z,4.80
2018-05-05T13:35:45.211Z,4.50
2018-05-05T13:36:45.223Z,4.60
2018-05-05T13:37:45.190Z,4.40
2018-05-05T13:38:45.255Z,5.00